Time;durP1;ratioP1;P1;durP2;ratioP2;P2;SDS_P1;SDS_P2;PMS_P1;PMS_P2;Temp;Humidity;BMP_temperature;BMP_pressure;BME280_temperature;BME280_humidity;BME280_pressure;Samples;Min_cycle;Max_cycle;Signal;HPM_P1;HPM_P2
2021/12/20 00:02:00;;;;;;;1.20;0.40;;;;;;;;;;5007523;28;20037;-83
2021/12/20 00:04:26;;;;;;;1.33;0.10;;;;;;;;;;5000317;28;20077;-83
2021/12/20 00:06:52;;;;;;;2.28;0.40;;;;;;;;;;5006452;28;21934;-83
2021/12/20 00:09:19;;;;;;;0.88;0.32;;;;;;;;;;5007746;28;20061;-83
2021/12/20 00:11:45;;;;;;;0.65;0.20;;;;;;;;;;5006959;28;20521;-81
2021/12/20 00:14:12;;;;;;;1.35;0.30;;;;;;;;;;5008949;28;20053;-82
2021/12/20 00:16:38;;;;;;;0.30;0.10;;;;;;;;;;5007717;28;20548;-83
2021/12/20 00:19:09;;;;;;;2.97;0.30;;;;;;;;;;5021271;28;20073;-83
2021/12/20 00:21:36;;;;;;;0.50;0.20;;;;;;;;;;5022594;28;20069;-81
2021/12/20 00:24:02;;;;;;;3.78;0.40;;;;;;;;;;5027210;28;20057;-81
2021/12/20 00:26:28;;;;;;;1.17;0.10;;;;;;;;;;5013196;28;20057;-79
2021/12/20 00:28:55;;;;;;;0.93;0.20;;;;;;;;;;5008496;28;20449;-82
2021/12/20 00:31:21;;;;;;;1.95;0.20;;;;;;;;;;5028228;28;20030;-82
2021/12/20 00:33:48;;;;;;;0.73;0.17;;;;;;;;;;5007166;28;20512;-83
2021/12/20 00:36:21;;;;;;;1.60;0.22;;;;;;;;;;5019922;28;20073;-82
2021/12/20 00:41:33;;;;;;;0.40;0.15;;;;;;;;;;5029829;28;20056;-82
2021/12/20 00:43:59;;;;;;;1.40;0.28;;;;;;;;;;5027521;28;20037;-81
2021/12/20 00:46:26;;;;;;;1.08;0.50;;;;;;;;;;5035099;28;20041;-81
2021/12/20 00:48:53;;;;;;;0.00;0.00;;;;;;;;;;5016124;28;20065;-81
2021/12/20 00:51:19;;;;;;;0.50;0.13;;;;;;;;;;5030968;28;20095;-81
2021/12/20 00:53:46;;;;;;;0.52;0.20;;;;;;;;;;5034151;28;20389;-80
2021/12/20 00:56:12;;;;;;;0.93;0.35;;;;;;;;;;5032197;28;20103;-80
2021/12/20 00:58:38;;;;;;;0.95;0.40;;;;;;;;;;5025533;28;20061;-80
2021/12/20 01:01:06;;;;;;;0.98;0.20;;;;;;;;;;5013224;28;20044;-80
2021/12/20 01:03:33;;;;;;;0.65;0.25;;;;;;;;;;5004662;28;20386;-80
2021/12/20 01:06:01;;;;;;;1.35;0.50;;;;;;;;;;5011218;28;20397;-81
2021/12/20 01:08:32;;;;;;;0.32;0.15;;;;;;;;;;5007294;28;20494;-84
2021/12/20 01:11:00;;;;;;;0.40;0.30;;;;;;;;;;5006497;28;22610;-85
2021/12/20 01:13:29;;;;;;;0.82;0.22;;;;;;;;;;5006739;28;20490;-83
2021/12/20 01:15:58;;;;;;;0.45;0.25;;;;;;;;;;5009398;28;20366;-84
2021/12/20 01:18:24;;;;;;;1.80;0.30;;;;;;;;;;5021790;28;20119;-83
2021/12/20 01:20:51;;;;;;;0.68;0.35;;;;;;;;;;5025700;28;20057;-84
2021/12/20 01:23:18;;;;;;;1.25;0.10;;;;;;;;;;5010371;28;20049;-80
2021/12/20 01:25:45;;;;;;;0.32;0.10;;;;;;;;;;5021185;28;20615;-80
2021/12/20 01:28:12;;;;;;;1.05;0.52;;;;;;;;;;5029823;28;20531;-80
2021/12/20 01:30:40;;;;;;;0.90;0.22;;;;;;;;;;5022167;28;20079;-80
2021/12/20 01:33:11;;;;;;;0.22;0.10;;;;;;;;;;5027926;28;20091;-79
2021/12/20 01:35:38;;;;;;;;;;;;;;;;;;5020481;28;20076;-79
2021/12/20 01:38:04;;;;;;;1.10;0.30;;;;;;;;;;5032414;28;20349;-79
2021/12/20 01:40:31;;;;;;;0.28;0.15;;;;;;;;;;5028949;28;20795;-78
2021/12/20 01:42:58;;;;;;;1.27;0.30;;;;;;;;;;5029640;28;20508;-79
2021/12/20 01:45:26;;;;;;;1.67;0.32;;;;;;;;;;5019390;28;20073;-81
2021/12/20 01:48:02;;;;;;;0.70;0.20;;;;;;;;;;5028720;28;20053;-81
2021/12/20 01:53:02;;;;;;;0.50;0.30;;;;;;;;;;5032083;28;20061;-79
2021/12/20 01:55:28;;;;;;;0.60;0.32;;;;;;;;;;5028735;28;20119;-80
2021/12/20 01:57:55;;;;;;;0.43;0.20;;;;;;;;;;5026987;28;21230;-79
2021/12/20 02:00:23;;;;;;;0.98;0.20;;;;;;;;;;5032056;28;20069;-79
2021/12/20 02:02:57;;;;;;;0.30;0.10;;;;;;;;;;5031698;28;20037;-79
2021/12/20 02:05:30;;;;;;;0.52;0.20;;;;;;;;;;5030960;28;20045;-80
2021/12/20 02:08:03;;;;;;;1.08;0.20;;;;;;;;;;5028213;28;21474;-79
2021/12/20 02:10:33;;;;;;;0.73;0.20;;;;;;;;;;5028430;28;20177;-79
2021/12/20 02:12:59;;;;;;;0.35;0.10;;;;;;;;;;5031754;28;20049;-80
2021/12/20 02:15:26;;;;;;;0.77;0.20;;;;;;;;;;5025708;28;20116;-80
2021/12/20 02:17:52;;;;;;;0.65;0.25;;;;;;;;;;5028650;28;20053;-80
2021/12/20 02:20:29;;;;;;;1.10;0.38;;;;;;;;;;5031751;28;20146;-80
2021/12/20 02:22:57;;;;;;;0.93;0.30;;;;;;;;;;5030001;28;21283;-79
2021/12/20 02:25:24;;;;;;;0.85;0.10;;;;;;;;;;5006026;28;20119;-80
2021/12/20 02:27:50;;;;;;;0.55;0.20;;;;;;;;;;5032027;28;20106;-80
2021/12/20 02:38:27;;;;;;;0.28;0.13;;;;;;;;;;5029887;28;20492;-80
2021/12/20 02:40:58;;;;;;;0.50;0.20;;;;;;;;;;5007464;28;20033;-80
2021/12/20 02:43:24;;;;;;;0.43;0.17;;;;;;;;;;5016544;28;20652;-82
2021/12/20 02:45:54;;;;;;;1.35;0.20;;;;;;;;;;5011283;28;20143;-84
2021/12/20 02:48:21;;;;;;;0.20;0.20;;;;;;;;;;5011397;28;20425;-85
2021/12/20 02:50:47;;;;;;;0.80;0.30;;;;;;;;;;5028474;28;20061;-85
2021/12/20 02:53:13;;;;;;;0.85;0.30;;;;;;;;;;5032422;28;20037;-85
2021/12/20 02:55:40;;;;;;;0.55;0.20;;;;;;;;;;5025936;28;20493;-84
2021/12/20 02:58:08;;;;;;;0.52;0.30;;;;;;;;;;5018833;28;20405;-84
2021/12/20 03:00:35;;;;;;;1.00;0.30;;;;;;;;;;5028160;28;20087;-80
2021/12/20 03:03:01;;;;;;;0.73;0.30;;;;;;;;;;5035941;28;20021;-79
2021/12/20 03:05:28;;;;;;;1.13;0.43;;;;;;;;;;5049818;28;20029;-79
2021/12/20 03:07:54;;;;;;;0.93;0.20;;;;;;;;;;5035711;28;20045;-81
2021/12/20 03:10:22;;;;;;;0.75;0.20;;;;;;;;;;5051532;28;20074;-81
2021/12/20 03:12:49;;;;;;;1.92;0.30;;;;;;;;;;5045952;28;20025;-80
2021/12/20 03:15:21;;;;;;;0.30;0.10;;;;;;;;;;5028834;28;20038;-80
2021/12/20 03:17:48;;;;;;;0.70;0.22;;;;;;;;;;5046387;28;20055;-82
2021/12/20 03:20:15;;;;;;;0.70;0.30;;;;;;;;;;5050215;28;20037;-82
2021/12/20 03:22:42;;;;;;;0.40;0.20;;;;;;;;;;5049058;28;20068;-82
2021/12/20 03:25:09;;;;;;;0.57;0.25;;;;;;;;;;5035235;28;20029;-79
2021/12/20 03:27:35;;;;;;;0.80;0.20;;;;;;;;;;5046961;28;20041;-79
2021/12/20 03:30:02;;;;;;;0.90;0.30;;;;;;;;;;5044517;28;20029;-82
2021/12/20 03:32:28;;;;;;;1.52;0.50;;;;;;;;;;5015765;28;20029;-81
2021/12/20 03:34:55;;;;;;;0.57;0.30;;;;;;;;;;5029588;28;21520;-79
2021/12/20 03:37:21;;;;;;;0.80;0.32;;;;;;;;;;5033048;28;20038;-80
2021/12/20 03:39:48;;;;;;;1.10;0.40;;;;;;;;;;5031396;28;20439;-81
2021/12/20 03:42:14;;;;;;;1.00;0.17;;;;;;;;;;5015649;28;20033;-81
2021/12/20 03:44:44;;;;;;;0.93;0.20;;;;;;;;;;5030895;28;20029;-81
2021/12/20 03:47:12;;;;;;;0.60;0.20;;;;;;;;;;5029683;28;20060;-82
2021/12/20 03:49:38;;;;;;;1.02;0.30;;;;;;;;;;5023913;28;20061;-80
2021/12/20 03:52:05;;;;;;;1.25;0.40;;;;;;;;;;5024265;28;20497;-81
2021/12/20 03:54:32;;;;;;;0.80;0.30;;;;;;;;;;5011116;28;20052;-82
2021/12/20 03:56:58;;;;;;;1.20;0.40;;;;;;;;;;5025138;28;20068;-82
2021/12/20 03:59:24;;;;;;;0.55;0.25;;;;;;;;;;5027922;28;20080;-82
2021/12/20 04:01:51;;;;;;;0.65;0.30;;;;;;;;;;5026191;28;20068;-82
2021/12/20 04:04:18;;;;;;;0.63;0.30;;;;;;;;;;5030087;28;20064;-85
2021/12/20 04:06:44;;;;;;;0.70;0.20;;;;;;;;;;5027367;28;20072;-81
2021/12/20 04:09:10;;;;;;;0.32;0.20;;;;;;;;;;5028564;28;20061;-81
2021/12/20 04:11:37;;;;;;;0.30;0.20;;;;;;;;;;5030603;28;20065;-81
2021/12/20 04:14:03;;;;;;;0.65;0.30;;;;;;;;;;5028665;28;20568;-81
2021/12/20 04:16:30;;;;;;;1.70;0.35;;;;;;;;;;5024518;28;20059;-79
2021/12/20 04:18:57;;;;;;;1.35;0.30;;;;;;;;;;5025675;28;20057;-81
2021/12/20 04:21:23;;;;;;;0.55;0.05;;;;;;;;;;5024861;28;20025;-81
2021/12/20 04:23:50;;;;;;;1.10;0.30;;;;;;;;;;5022454;28;20060;-81
2021/12/20 04:26:16;;;;;;;0.35;0.10;;;;;;;;;;5007035;28;20505;-82
2021/12/20 04:28:42;;;;;;;1.05;0.30;;;;;;;;;;5036339;28;20037;-81
2021/12/20 04:31:09;;;;;;;0.15;0.15;;;;;;;;;;5018444;28;20040;-81
2021/12/20 04:33:35;;;;;;;1.58;0.30;;;;;;;;;;5027215;28;20049;-82
2021/12/20 04:36:03;;;;;;;0.70;0.30;;;;;;;;;;4992497;28;20061;-81
2021/12/20 04:38:31;;;;;;;1.00;0.40;;;;;;;;;;5026642;28;20046;-80
2021/12/20 04:40:57;;;;;;;0.77;0.30;;;;;;;;;;5021097;28;20057;-80
2021/12/20 04:43:24;;;;;;;1.02;0.40;;;;;;;;;;5020365;28;20050;-80
2021/12/20 04:45:50;;;;;;;0.40;0.30;;;;;;;;;;5027148;28;20072;-81
2021/12/20 04:48:17;;;;;;;0.57;0.25;;;;;;;;;;5023079;28;20089;-81
2021/12/20 04:50:43;;;;;;;0.52;0.20;;;;;;;;;;5025958;28;20106;-81
2021/12/20 04:53:10;;;;;;;1.63;0.30;;;;;;;;;;5023799;28;20064;-81
2021/12/20 04:55:36;;;;;;;0.73;0.30;;;;;;;;;;5020585;28;20060;-80
2021/12/20 04:58:05;;;;;;;1.95;0.38;;;;;;;;;;5021663;28;20069;-80
2021/12/20 05:00:33;;;;;;;1.30;0.40;;;;;;;;;;5022327;28;20061;-79
2021/12/20 05:03:00;;;;;;;0.90;0.30;;;;;;;;;;5010833;28;20052;-78
2021/12/20 05:05:28;;;;;;;0.52;0.30;;;;;;;;;;5024865;28;20061;-77
2021/12/20 05:07:55;;;;;;;0.77;0.20;;;;;;;;;;5021742;28;20830;-79
2021/12/20 05:10:28;;;;;;;0.60;0.40;;;;;;;;;;5027642;28;20555;-78
2021/12/20 05:12:56;;;;;;;1.85;0.57;;;;;;;;;;5028113;28;21236;-79
2021/12/20 05:15:23;;;;;;;1.13;0.40;;;;;;;;;;5031926;28;20499;-79
2021/12/20 05:17:49;;;;;;;0.98;0.40;;;;;;;;;;5027467;28;20053;-79
2021/12/20 05:20:17;;;;;;;1.92;0.60;;;;;;;;;;5030383;28;20065;-79
2021/12/20 05:22:44;;;;;;;1.05;0.65;;;;;;;;;;5028538;28;20123;-78
2021/12/20 05:25:10;;;;;;;4.75;0.90;;;;;;;;;;5033004;28;20480;-82
2021/12/20 05:27:37;;;;;;;2.78;0.90;;;;;;;;;;4998996;28;20042;-81
2021/12/20 05:30:05;;;;;;;2.10;0.73;;;;;;;;;;5032211;28;20057;-81
2021/12/20 05:32:31;;;;;;;2.28;0.80;;;;;;;;;;5001978;28;20042;-80
2021/12/20 05:34:58;;;;;;;1.77;0.70;;;;;;;;;;5029967;28;20057;-79
2021/12/20 05:37:24;;;;;;;3.90;1.00;;;;;;;;;;5029084;28;20119;-81
2021/12/20 05:39:51;;;;;;;2.45;0.90;;;;;;;;;;5030820;28;20061;-80
2021/12/20 05:42:17;;;;;;;3.97;1.15;;;;;;;;;;5029758;28;20057;-80
2021/12/20 05:44:45;;;;;;;7.53;1.27;;;;;;;;;;5029161;28;20049;-80
2021/12/20 05:47:11;;;;;;;4.40;1.45;;;;;;;;;;5030510;28;20081;-82
2021/12/20 05:49:37;;;;;;;2.85;0.82;;;;;;;;;;5027391;28;20065;-83
2021/12/20 05:52:04;;;;;;;3.35;0.85;;;;;;;;;;5033289;28;20060;-83
2021/12/20 05:54:31;;;;;;;3.97;1.02;;;;;;;;;;5030481;28;20595;-84
2021/12/20 05:56:58;;;;;;;5.90;1.05;;;;;;;;;;5026230;28;20068;-84
2021/12/20 05:59:24;;;;;;;4.15;1.17;;;;;;;;;;5025658;28;20065;-82
2021/12/20 06:01:51;;;;;;;3.47;0.95;;;;;;;;;;5026340;28;20069;-83
2021/12/20 06:04:17;;;;;;;5.68;0.90;;;;;;;;;;5030463;28;20056;-82
2021/12/20 06:06:43;;;;;;;2.38;1.02;;;;;;;;;;5026842;28;20042;-84
2021/12/20 06:09:10;;;;;;;4.15;0.90;;;;;;;;;;5029129;28;20502;-86
2021/12/20 06:11:36;;;;;;;2.72;0.90;;;;;;;;;;5028246;28;20061;-82
2021/12/20 06:14:03;;;;;;;4.63;0.82;;;;;;;;;;5029345;28;20064;-82
2021/12/20 06:16:29;;;;;;;1.88;0.90;;;;;;;;;;5031392;28;20068;-83
2021/12/20 06:18:55;;;;;;;3.63;0.68;;;;;;;;;;5022427;28;21220;-84
2021/12/20 06:21:23;;;;;;;2.17;0.80;;;;;;;;;;5010675;28;20060;-83
2021/12/20 06:23:49;;;;;;;4.45;0.70;;;;;;;;;;5024244;28;20065;-83
2021/12/20 06:26:16;;;;;;;2.63;0.77;;;;;;;;;;5026212;28;20183;-83
2021/12/20 06:28:43;;;;;;;2.47;0.80;;;;;;;;;;5027510;28;20088;-83
2021/12/20 06:31:09;;;;;;;2.20;0.60;;;;;;;;;;5008442;28;20049;-82
2021/12/20 06:33:37;;;;;;;2.92;0.60;;;;;;;;;;5028046;28;20069;-82
2021/12/20 06:36:03;;;;;;;1.65;0.60;;;;;;;;;;5010995;28;20504;-82
2021/12/20 06:38:31;;;;;;;1.80;0.52;;;;;;;;;;5025773;28;20073;-82
2021/12/20 06:40:58;;;;;;;2.10;0.80;;;;;;;;;;5008218;28;20296;-82
2021/12/20 06:43:24;;;;;;;1.73;0.60;;;;;;;;;;5028409;28;20083;-81
2021/12/20 06:45:51;;;;;;;1.77;0.50;;;;;;;;;;5024471;28;20073;-82
2021/12/20 06:48:17;;;;;;;2.97;0.70;;;;;;;;;;5024529;28;20524;-81
2021/12/20 06:50:44;;;;;;;2.78;0.60;;;;;;;;;;5024030;28;20057;-82
2021/12/20 06:53:10;;;;;;;2.05;0.63;;;;;;;;;;5027968;28;20089;-82
2021/12/20 06:55:37;;;;;;;2.15;0.80;;;;;;;;;;5023363;28;20138;-81
2021/12/20 06:58:03;;;;;;;1.25;0.68;;;;;;;;;;5022564;28;20068;-81
2021/12/20 07:00:33;;;;;;;6.50;0.77;;;;;;;;;;5005927;28;20164;-81
2021/12/20 07:02:59;;;;;;;3.25;1.15;;;;;;;;;;5021558;28;21292;-81
2021/12/20 07:05:26;;;;;;;4.57;1.85;;;;;;;;;;5024718;28;20083;-80
2021/12/20 07:07:52;;;;;;;4.97;1.77;;;;;;;;;;5028213;28;20124;-82
2021/12/20 07:10:19;;;;;;;4.95;1.88;;;;;;;;;;5022840;28;20663;-84
2021/12/20 07:12:45;;;;;;;5.47;2.60;;;;;;;;;;5026752;28;20029;-81
2021/12/20 07:15:14;;;;;;;5.63;3.60;;;;;;;;;;5026685;28;20061;-81
2021/12/20 07:17:40;;;;;;;7.35;3.47;;;;;;;;;;5024556;28;20057;-81
2021/12/20 07:20:07;;;;;;;6.60;2.67;;;;;;;;;;5028677;28;20057;-81
2021/12/20 07:22:34;;;;;;;9.77;4.60;;;;;;;;;;5025212;28;20033;-81
2021/12/20 07:25:01;;;;;;;9.35;4.80;;;;;;;;;;5027187;28;20061;-81
2021/12/20 07:27:28;;;;;;;6.22;3.80;;;;;;;;;;5026218;28;20508;-80
2021/12/20 07:29:54;;;;;;;10.00;5.78;;;;;;;;;;5030528;28;20081;-81
2021/12/20 07:32:21;;;;;;;9.10;5.25;;;;;;;;;;5012727;28;20033;-81
2021/12/20 07:34:47;;;;;;;11.27;5.80;;;;;;;;;;5024287;28;20571;-82
2021/12/20 07:37:13;;;;;;;14.48;6.80;;;;;;;;;;5028598;28;20110;-84
2021/12/20 07:39:40;;;;;;;11.18;6.93;;;;;;;;;;5026210;28;20065;-83
2021/12/20 07:42:07;;;;;;;15.35;8.60;;;;;;;;;;5024719;28;20566;-80
2021/12/20 07:44:33;;;;;;;12.93;7.07;;;;;;;;;;5026452;28;20061;-79
2021/12/20 07:47:00;;;;;;;11.23;7.65;;;;;;;;;;5024879;28;20079;-82
2021/12/20 07:49:26;;;;;;;9.07;5.78;;;;;;;;;;5027836;28;20466;-83
2021/12/20 07:51:53;;;;;;;14.80;9.23;;;;;;;;;;5026690;28;20037;-84
2021/12/20 07:54:20;;;;;;;14.60;9.25;;;;;;;;;;5027915;28;20057;-85
2021/12/20 07:56:47;;;;;;;16.80;8.95;;;;;;;;;;5028287;28;20053;-81
2021/12/20 07:59:13;;;;;;;15.13;8.35;;;;;;;;;;5009142;28;20064;-84
2021/12/20 08:01:40;;;;;;;15.90;9.02;;;;;;;;;;5027113;28;20053;-79
2021/12/20 08:04:09;;;;;;;17.17;9.63;;;;;;;;;;5033315;28;20041;-81
2021/12/20 08:06:36;;;;;;;11.15;6.85;;;;;;;;;;5028455;28;20500;-79
2021/12/20 08:09:03;;;;;;;18.08;9.38;;;;;;;;;;5027801;28;20502;-80
2021/12/20 08:11:30;;;;;;;13.18;7.88;;;;;;;;;;5006135;28;20057;-80
2021/12/20 08:13:56;;;;;;;20.95;12.13;;;;;;;;;;5005076;28;20053;-81
2021/12/20 08:16:22;;;;;;;14.13;8.95;;;;;;;;;;5021953;28;20080;-80
2021/12/20 08:18:49;;;;;;;15.38;8.63;;;;;;;;;;5021876;28;20117;-80
2021/12/20 08:21:15;;;;;;;18.23;10.77;;;;;;;;;;5025073;28;20093;-81
2021/12/20 08:23:43;;;;;;;17.02;10.80;;;;;;;;;;4999963;28;20438;-81
2021/12/20 08:26:10;;;;;;;14.25;8.98;;;;;;;;;;5025451;28;20057;-80
2021/12/20 08:28:37;;;;;;;18.85;11.32;;;;;;;;;;5025663;28;20069;-81
2021/12/20 08:31:04;;;;;;;18.48;9.77;;;;;;;;;;5025832;28;20077;-81
2021/12/20 08:33:32;;;;;;;18.45;10.73;;;;;;;;;;5024128;28;20068;-78
2021/12/20 08:36:00;;;;;;;18.05;11.52;;;;;;;;;;5027656;28;20649;-81
2021/12/20 08:38:27;;;;;;;17.73;11.10;;;;;;;;;;5025656;28;20059;-83
2021/12/20 08:40:53;;;;;;;21.10;13.05;;;;;;;;;;5026001;28;20104;-88
2021/12/20 08:43:20;;;;;;;21.90;14.10;;;;;;;;;;5028475;28;20110;-85
2021/12/20 08:45:47;;;;;;;18.20;11.27;;;;;;;;;;5026143;28;20145;-86
2021/12/20 08:48:13;;;;;;;17.83;10.32;;;;;;;;;;5031402;28;20037;-83
2021/12/20 08:50:40;;;;;;;17.02;9.48;;;;;;;;;;5031340;28;20069;-83
2021/12/20 08:53:07;;;;;;;21.73;13.45;;;;;;;;;;5037859;28;20497;-82
2021/12/20 08:55:33;;;;;;;19.90;12.43;;;;;;;;;;5028476;28;20045;-83
2021/12/20 08:58:00;;;;;;;19.15;13.07;;;;;;;;;;5043269;28;20063;-83
2021/12/20 09:00:28;;;;;;;18.42;11.85;;;;;;;;;;5036974;28;20032;-83
2021/12/20 09:02:55;;;;;;;16.27;11.00;;;;;;;;;;5014467;28;20076;-83
2021/12/20 09:05:22;;;;;;;22.90;14.40;;;;;;;;;;5014582;28;20042;-82
2021/12/20 09:07:49;;;;;;;18.10;12.32;;;;;;;;;;5012875;28;20454;-81
2021/12/20 09:10:16;;;;;;;14.65;8.63;;;;;;;;;;5013373;28;20521;-81
2021/12/20 09:12:44;;;;;;;14.95;8.45;;;;;;;;;;5009153;28;20053;-82
2021/12/20 09:15:15;;;;;;;19.60;11.57;;;;;;;;;;5014586;28;20559;-82
2021/12/20 09:17:49;;;;;;;16.63;10.77;;;;;;;;;;5013210;28;20092;-82
2021/12/20 09:20:17;;;;;;;17.42;10.20;;;;;;;;;;5012909;28;20184;-83
2021/12/20 09:22:52;;;;;;;17.42;10.70;;;;;;;;;;5007921;28;20065;-84
2021/12/20 09:25:22;;;;;;;13.73;9.00;;;;;;;;;;5012025;28;20057;-83
2021/12/20 09:27:49;;;;;;;17.07;11.77;;;;;;;;;;5012676;28;20100;-83
2021/12/20 09:30:16;;;;;;;18.05;11.27;;;;;;;;;;5011790;28;20135;-82
2021/12/20 09:32:43;;;;;;;16.50;10.18;;;;;;;;;;5009245;28;20061;-83
2021/12/20 09:35:09;;;;;;;16.73;10.60;;;;;;;;;;5013192;28;20057;-84
2021/12/20 09:37:37;;;;;;;14.43;9.00;;;;;;;;;;5008628;28;20080;-84
2021/12/20 09:40:04;;;;;;;18.52;10.95;;;;;;;;;;5012519;28;20513;-84
2021/12/20 09:42:32;;;;;;;16.75;10.52;;;;;;;;;;5010212;28;20065;-84
2021/12/20 09:45:00;;;;;;;19.20;11.27;;;;;;;;;;5010351;28;20089;-82
2021/12/20 09:47:33;;;;;;;18.60;10.73;;;;;;;;;;5013104;28;20072;-82
2021/12/20 09:50:04;;;;;;;14.95;9.63;;;;;;;;;;5010555;28;20139;-82
2021/12/20 09:52:30;;;;;;;17.88;11.75;;;;;;;;;;5007840;28;20045;-82
2021/12/20 09:54:56;;;;;;;18.33;12.70;;;;;;;;;;4991307;28;20328;-81
2021/12/20 09:57:23;;;;;;;16.23;11.18;;;;;;;;;;5008771;28;20432;-82
2021/12/20 09:59:51;;;;;;;18.58;11.13;;;;;;;;;;5002093;28;20062;-82
2021/12/20 10:02:19;;;;;;;18.20;11.38;;;;;;;;;;5010804;28;20034;-84
2021/12/20 10:04:45;;;;;;;20.00;12.50;;;;;;;;;;5009114;28;20058;-84
2021/12/20 10:07:12;;;;;;;19.85;12.07;;;;;;;;;;5019345;28;20092;-84
2021/12/20 10:09:41;;;;;;;20.00;12.30;;;;;;;;;;5013422;28;20065;-85
2021/12/20 10:12:11;;;;;;;21.98;13.57;;;;;;;;;;5032319;28;20030;-82
2021/12/20 10:14:58;;;;;;;26.15;15.65;;;;;;;;;;5027615;28;20041;-82
2021/12/20 10:17:26;;;;;;;18.55;10.43;;;;;;;;;;5030062;28;20057;-81
2021/12/20 10:19:53;;;;;;;16.17;10.13;;;;;;;;;;5029745;28;20068;-81
2021/12/20 10:22:22;;;;;;;21.88;14.18;;;;;;;;;;5029645;28;20029;-81
2021/12/20 10:24:49;;;;;;;17.20;11.60;;;;;;;;;;5030785;28;20114;-81
2021/12/20 10:27:32;;;;;;;25.00;15.68;;;;;;;;;;5013844;28;20036;-82
2021/12/20 10:29:59;;;;;;;26.15;15.73;;;;;;;;;;5012798;28;22347;-81
2021/12/20 10:32:44;;;;;;;23.00;13.95;;;;;;;;;;5032306;28;20064;-82
2021/12/20 10:35:31;;;;;;;25.23;15.20;;;;;;;;;;5029400;28;20366;-81
2021/12/20 10:38:03;;;;;;;26.25;15.68;;;;;;;;;;5028240;28;20494;-81
2021/12/20 10:40:29;;;;;;;15.82;9.88;;;;;;;;;;5013155;28;20065;-82
2021/12/20 10:42:57;;;;;;;19.38;11.40;;;;;;;;;;5029997;28;20061;-81
2021/12/20 10:45:25;;;;;;;16.38;9.85;;;;;;;;;;5026516;28;20063;-81
2021/12/20 10:47:52;;;;;;;10.88;7.63;;;;;;;;;;5029541;28;20061;-82
2021/12/20 10:50:19;;;;;;;11.52;6.47;;;;;;;;;;5029408;28;20065;-82
2021/12/20 10:52:46;;;;;;;10.38;7.40;;;;;;;;;;5028807;28;20130;-81
2021/12/20 10:55:13;;;;;;;12.88;7.68;;;;;;;;;;5039259;28;20556;-82
2021/12/20 10:57:40;;;;;;;12.18;7.13;;;;;;;;;;5030435;28;20069;-82
2021/12/20 11:00:22;;;;;;;8.25;4.88;;;;;;;;;;5031533;28;20061;-81
2021/12/20 11:03:27;;;;;;;18.10;11.70;;;;;;;;;;5024260;28;20454;-81
2021/12/20 11:06:25;;;;;;;17.65;11.05;;;;;;;;;;5029132;28;20115;-80
2021/12/20 11:11:30;;;;;;;16.88;10.23;;;;;;;;;;5028065;28;20130;-80
2021/12/20 11:14:00;;;;;;;27.95;15.48;;;;;;;;;;5025485;28;22340;-80
2021/12/20 11:16:27;;;;;;;18.75;11.23;;;;;;;;;;5018409;28;20029;-83
2021/12/20 11:19:15;;;;;;;18.45;12.23;;;;;;;;;;5012506;28;20034;-82
2021/12/20 11:21:46;;;;;;;21.65;12.98;;;;;;;;;;5030659;28;20581;-81
2021/12/20 11:24:13;;;;;;;19.70;11.47;;;;;;;;;;5028437;28;20066;-82
2021/12/20 11:26:40;;;;;;;19.17;10.82;;;;;;;;;;5024379;28;20057;-82
2021/12/20 11:29:06;;;;;;;21.88;14.75;;;;;;;;;;5027396;28;20095;-82
2021/12/20 11:31:33;;;;;;;17.55;11.45;;;;;;;;;;5028435;28;20120;-82
2021/12/20 11:34:08;;;;;;;22.95;13.05;;;;;;;;;;5019413;28;20543;-83
2021/12/20 11:36:35;;;;;;;20.77;13.32;;;;;;;;;;5027298;28;20552;-81
2021/12/20 11:39:02;;;;;;;19.08;11.80;;;;;;;;;;5035360;28;20041;-82
2021/12/20 11:41:30;;;;;;;17.65;11.57;;;;;;;;;;5005153;28;20037;-81
2021/12/20 11:43:57;;;;;;;14.82;9.80;;;;;;;;;;5032010;28;20041;-82
2021/12/20 11:46:25;;;;;;;16.80;11.23;;;;;;;;;;4988614;28;20077;-83
2021/12/20 11:48:52;;;;;;;22.58;13.52;;;;;;;;;;5007427;28;20209;-83
2021/12/20 11:51:19;;;;;;;20.33;12.88;;;;;;;;;;5027150;28;20057;-81
2021/12/20 11:53:45;;;;;;;22.15;15.52;;;;;;;;;;5008896;28;20057;-82
2021/12/20 11:56:12;;;;;;;20.33;13.52;;;;;;;;;;5027540;28;20130;-82
2021/12/20 11:58:45;;;;;;;24.33;14.93;;;;;;;;;;5012977;28;20069;-81
2021/12/20 12:01:16;;;;;;;19.30;12.93;;;;;;;;;;5030283;28;20087;-77
2021/12/20 12:03:52;;;;;;;21.08;12.98;;;;;;;;;;5027224;28;20057;-77
2021/12/20 12:06:26;;;;;;;20.77;14.15;;;;;;;;;;5027642;28;20061;-77
2021/12/20 12:08:52;;;;;;;20.23;12.15;;;;;;;;;;5020946;28;20076;-77
2021/12/20 12:11:21;;;;;;;15.38;9.73;;;;;;;;;;5027222;28;20050;-77
2021/12/20 12:14:02;;;;;;;20.98;13.52;;;;;;;;;;5016552;28;20065;-78
2021/12/20 12:16:48;;;;;;;24.42;16.60;;;;;;;;;;4996701;28;20038;-77
2021/12/20 12:19:34;;;;;;;17.33;10.15;;;;;;;;;;5006449;28;21548;-77
2021/12/20 12:22:00;;;;;;;22.67;14.48;;;;;;;;;;5011640;28;21330;-77
2021/12/20 12:24:43;;;;;;;16.88;11.23;;;;;;;;;;5008608;28;20441;-77
2021/12/20 12:27:27;;;;;;;18.80;11.23;;;;;;;;;;4995930;28;20255;-78
2021/12/20 12:30:12;;;;;;;24.85;16.30;;;;;;;;;;5006434;28;20757;-78
2021/12/20 12:32:38;;;;;;;20.00;12.95;;;;;;;;;;5005611;28;20589;-77
2021/12/20 12:35:05;;;;;;;16.17;11.00;;;;;;;;;;5008540;28;20093;-77
2021/12/20 12:37:36;;;;;;;23.67;15.45;;;;;;;;;;5006292;28;20073;-77
2021/12/20 12:40:25;;;;;;;17.50;12.38;;;;;;;;;;5008630;28;20659;-77
2021/12/20 12:42:56;;;;;;;20.85;13.15;;;;;;;;;;5006423;28;20123;-78
2021/12/20 12:45:41;;;;;;;19.40;11.82;;;;;;;;;;5014367;28;20057;-78
2021/12/20 12:48:26;;;;;;;19.00;11.73;;;;;;;;;;5022616;28;22256;-77
2021/12/20 12:50:52;;;;;;;26.98;15.98;;;;;;;;;;5027202;28;20073;-79
2021/12/20 12:53:37;;;;;;;20.20;13.20;;;;;;;;;;5004465;28;20038;-77
2021/12/20 12:56:22;;;;;;;15.27;11.20;;;;;;;;;;5020698;28;20095;-77
2021/12/20 12:59:08;;;;;;;22.90;14.93;;;;;;;;;;5024657;28;20104;-79
2021/12/20 13:01:35;;;;;;;18.02;10.88;;;;;;;;;;5006622;28;20131;-79
2021/12/20 13:04:01;;;;;;;16.33;10.05;;;;;;;;;;5022604;28;20092;-78
2021/12/20 13:06:28;;;;;;;19.75;12.45;;;;;;;;;;5007834;28;20062;-79
2021/12/20 13:08:54;;;;;;;18.83;11.95;;;;;;;;;;5002606;28;20123;-78
2021/12/20 13:11:22;;;;;;;31.45;19.50;;;;;;;;;;5006034;28;20104;-79
2021/12/20 13:13:56;;;;;;;22.63;14.70;;;;;;;;;;5005529;28;20096;-79
2021/12/20 13:16:26;;;;;;;25.83;15.57;;;;;;;;;;5028116;28;20042;-78
2021/12/20 13:18:58;;;;;;;21.45;12.55;;;;;;;;;;5022498;28;20041;-78
2021/12/20 13:21:37;;;;;;;;;;;;;;;;;;5026622;28;20053;-82
2021/12/20 13:24:13;;;;;;;24.58;15.98;;;;;;;;;;5024313;28;20042;-79
2021/12/20 13:26:39;;;;;;;19.20;12.63;;;;;;;;;;5003299;28;20060;-78
2021/12/20 13:29:06;;;;;;;21.73;14.02;;;;;;;;;;5008234;28;20077;-78
2021/12/20 13:31:32;;;;;;;26.20;15.90;;;;;;;;;;5000888;28;20076;-77
2021/12/20 13:34:00;;;;;;;20.77;13.50;;;;;;;;;;5009126;28;20058;-79
2021/12/20 13:36:29;;;;;;;22.15;13.93;;;;;;;;;;5009233;28;20062;-79
2021/12/20 13:38:57;;;;;;;25.33;13.27;;;;;;;;;;5010533;28;20558;-77
2021/12/20 13:41:31;;;;;;;23.90;14.65;;;;;;;;;;5012481;28;20034;-78
2021/12/20 13:44:06;;;;;;;34.42;17.02;;;;;;;;;;5030702;28;20291;-78
2021/12/20 13:46:41;;;;;;;23.83;13.95;;;;;;;;;;5031341;28;20049;-77
2021/12/20 13:49:07;;;;;;;22.70;15.15;;;;;;;;;;5025865;28;20075;-76
2021/12/20 13:51:34;;;;;;;20.65;12.43;;;;;;;;;;5030157;28;20091;-77
2021/12/20 13:54:14;;;;;;;25.67;15.88;;;;;;;;;;5029473;28;20498;-76
2021/12/20 13:56:42;;;;;;;33.42;19.20;;;;;;;;;;5029611;28;20139;-75
2021/12/20 13:59:08;;;;;;;20.98;13.95;;;;;;;;;;5028760;28;20045;-76
2021/12/20 14:01:35;;;;;;;27.05;16.90;;;;;;;;;;5010932;28;20053;-75
2021/12/20 14:04:01;;;;;;;30.40;18.58;;;;;;;;;;5029095;28;20141;-76
2021/12/20 14:06:35;;;;;;;30.95;18.15;;;;;;;;;;5014805;28;20056;-77
2021/12/20 14:09:07;;;;;;;21.20;14.63;;;;;;;;;;5027654;28;20070;-76
2021/12/20 14:11:33;;;;;;;;;;;;;;;;;;5030395;28;20075;-76
2021/12/20 14:14:12;;;;;;;24.77;15.60;;;;;;;;;;5040357;28;19967;-76
2021/12/20 14:17:11;;;;;;;29.45;17.23;;;;;;;;;;5039080;28;20473;-77
2021/12/20 14:19:57;;;;;;;29.90;18.52;;;;;;;;;;4986118;28;20065;-75
2021/12/20 14:22:23;;;;;;;27.65;15.57;;;;;;;;;;5009051;28;20779;-75
2021/12/20 14:24:58;;;;;;;31.45;17.98;;;;;;;;;;5045902;28;20037;-76
2021/12/20 14:27:24;;;;;;;29.52;19.88;;;;;;;;;;5051136;28;20053;-81
2021/12/20 14:29:51;;;;;;;26.60;17.90;;;;;;;;;;5050104;28;20053;-80
2021/12/20 14:32:55;;;;;;;42.78;25.10;;;;;;;;;;5050289;28;20034;-80
2021/12/20 14:35:26;;;;;;;26.77;16.23;;;;;;;;;;4972342;28;21251;-84
2021/12/20 14:37:53;;;;;;;29.08;18.13;;;;;;;;;;4971209;28;20091;-81
2021/12/20 14:40:38;;;;;;;27.67;18.63;;;;;;;;;;5008340;28;20052;-81
2021/12/20 14:43:12;;;;;;;27.23;17.80;;;;;;;;;;5046935;28;20387;-81
2021/12/20 14:45:38;;;;;;;25.92;15.05;;;;;;;;;;5019075;28;20035;-82
2021/12/20 14:48:29;;;;;;;27.52;17.88;;;;;;;;;;5022984;28;20033;-81
2021/12/20 14:50:56;;;;;;;24.90;15.43;;;;;;;;;;5025175;28;20022;-82
2021/12/20 14:53:24;;;;;;;20.63;14.45;;;;;;;;;;5023017;28;20038;-82
2021/12/20 14:55:50;;;;;;;22.90;14.73;;;;;;;;;;5010234;28;20038;-82
2021/12/20 14:58:17;;;;;;;23.40;14.82;;;;;;;;;;5011980;28;20022;-82
2021/12/20 15:00:46;;;;;;;19.98;12.48;;;;;;;;;;5014630;28;20041;-82